KELZ

Wellsville Municipal Arpt,tarantine Field Airport

Wellsville, New York, USA
METAR KELZ 151556Z AUTO 09004KT 4SM BR CLR 03/03 A3016 RMK AO2 SLP230 T00330033
Observed Flight Rules
Dec-15 @ 15:56 UTC (7 minutes ago) Marginal Visual Flight Rules
Wind Visibility Clouds Conditions
90° at 4 knots 4 miles
  • Clear skies
  • Mist
Temperatures Readings
Current 3°C / 37°F
Dewpoint 3°C / 37°F
Humidity 100%
Altimeter 30.16" Hg
Pressure 1023 hPa
Elevation 646
METAR KELZ 151556Z AUTO 09004KT 4SM BR CLR 03/03 A3016 RMK AO2 SLP230 T00330033
Observed Flight Rules
Dec-15 @ 15:56 UTC
(7 minutes ago)
MVFR
Wind Visibility
90° at 4 knots 4 miles
Clouds
  • Clear skies
Conditions
  • Mist
Temperature Dewpoint
3°C / 37°F 3°C / 37°F
Humidity Altimeter Pressure
100% 30.16" Hg 1023 hPa